createdAt,value
2023-05-05T00:01:35.816Z,7.33
2023-05-05T00:04:03.003Z,3.70
2023-05-05T00:06:29.882Z,3.40
2023-05-05T00:08:58.140Z,6.50
2023-05-05T00:11:25.933Z,5.13
2023-05-05T00:13:52.928Z,4.30
2023-05-05T00:16:19.945Z,4.20
2023-05-05T00:18:47.250Z,7.43
2023-05-05T00:21:14.213Z,4.73
2023-05-05T00:23:41.150Z,7.33
2023-05-05T00:26:09.418Z,5.93
2023-05-05T00:28:36.514Z,6.20
2023-05-05T00:31:03.436Z,7.07
2023-05-05T00:33:30.532Z,10.47
2023-05-05T00:35:57.385Z,5.77
2023-05-05T00:38:24.259Z,4.50
2023-05-05T00:40:51.140Z,6.87
2023-05-05T00:43:19.293Z,5.13
2023-05-05T00:45:47.896Z,6.23
2023-05-05T00:48:16.871Z,11.67
2023-05-05T00:50:44.969Z,8.63
2023-05-05T00:53:13.487Z,4.60
2023-05-05T00:55:41.442Z,6.17
2023-05-05T00:58:09.924Z,3.60
2023-05-05T01:00:38.132Z,7.07
2023-05-05T01:03:05.798Z,5.47
2023-05-05T01:05:43.406Z,7.13
2023-05-05T01:08:33.301Z,6.77
2023-05-05T01:11:11.828Z,8.20
2023-05-05T01:13:52.513Z,5.20
2023-05-05T01:16:26.769Z,5.50
2023-05-05T01:19:01.253Z,6.13
2023-05-05T01:21:35.870Z,4.33
2023-05-05T01:24:42.993Z,6.37
2023-05-05T01:27:48.210Z,5.13
2023-05-05T01:30:37.928Z,6.13
2023-05-05T01:33:14.450Z,6.20
2023-05-05T01:35:47.061Z,8.40
2023-05-05T01:38:19.180Z,6.30
2023-05-05T01:40:56.200Z,8.17
2023-05-05T01:43:27.610Z,6.57
2023-05-05T01:45:56.494Z,4.30
2023-05-05T01:48:25.895Z,6.37
2023-05-05T01:50:54.064Z,6.13
2023-05-05T01:53:23.930Z,6.27
2023-05-05T01:55:52.850Z,4.70
2023-05-05T01:58:22.115Z,6.37
2023-05-05T02:00:50.851Z,5.13
2023-05-05T02:03:22.719Z,5.93
2023-05-05T02:05:53.743Z,9.00
2023-05-05T02:08:22.204Z,5.37
2023-05-05T02:10:50.445Z,5.43
2023-05-05T02:13:20.420Z,5.40
2023-05-05T02:15:49.661Z,7.47
2023-05-05T02:18:18.537Z,6.73
2023-05-05T02:20:46.951Z,10.90
2023-05-05T02:23:15.163Z,4.17
2023-05-05T02:25:46.076Z,8.70
2023-05-05T02:28:19.972Z,4.50
2023-05-05T02:30:57.444Z,6.13
2023-05-05T02:33:28.945Z,4.90
2023-05-05T02:35:59.434Z,7.97
2023-05-05T02:38:30.493Z,6.10
2023-05-05T02:41:01.360Z,5.50
2023-05-05T02:43:33.873Z,4.43
2023-05-05T02:46:00.967Z,3.90
2023-05-05T02:48:29.602Z,8.83
2023-05-05T02:50:57.096Z,6.63
2023-05-05T02:53:27.877Z,4.87
2023-05-05T02:56:05.506Z,5.27
2023-05-05T02:58:42.932Z,5.10
2023-05-05T03:01:28.028Z,6.70
2023-05-05T03:04:06.223Z,7.17
2023-05-05T03:06:42.451Z,9.60
2023-05-05T03:09:15.812Z,4.97
2023-05-05T03:11:49.833Z,7.90
2023-05-05T03:14:21.040Z,4.60
2023-05-05T03:16:49.755Z,6.23
2023-05-05T03:19:20.155Z,6.40
2023-05-05T03:21:48.305Z,5.13
2023-05-05T03:24:18.719Z,7.23
2023-05-05T03:26:47.810Z,5.30
2023-05-05T03:29:15.760Z,5.37
2023-05-05T03:31:42.853Z,6.53
2023-05-05T03:34:09.781Z,7.70
2023-05-05T03:36:36.839Z,12.13
2023-05-05T03:39:03.905Z,6.07
2023-05-05T03:41:32.224Z,8.00
2023-05-05T03:43:59.255Z,6.73
2023-05-05T03:46:26.266Z,6.40
2023-05-05T03:48:53.217Z,6.20
2023-05-05T03:51:20.176Z,4.57
2023-05-05T03:53:47.450Z,10.37
2023-05-05T03:56:14.324Z,7.47
2023-05-05T03:58:42.562Z,5.40
2023-05-05T04:01:09.547Z,5.43
2023-05-05T04:03:36.531Z,5.97
2023-05-05T04:06:03.846Z,6.53
2023-05-05T04:08:30.726Z,8.13
2023-05-05T04:10:57.648Z,6.67
2023-05-05T04:13:24.684Z,8.00
2023-05-05T04:15:52.945Z,8.60
2023-05-05T04:18:19.804Z,5.67
2023-05-05T04:20:47.155Z,5.20
2023-05-05T04:23:14.032Z,5.63
2023-05-05T04:25:41.155Z,8.10
2023-05-05T04:28:08.048Z,6.27
2023-05-05T04:30:34.938Z,6.93
2023-05-05T04:33:03.327Z,7.70
2023-05-05T04:35:30.559Z,7.80
2023-05-05T04:37:57.414Z,8.80
2023-05-05T04:40:26.078Z,6.70
2023-05-05T04:42:53.115Z,8.00
2023-05-05T04:45:20.139Z,7.47
2023-05-05T04:47:47.210Z,6.30
2023-05-05T04:50:16.483Z,6.30
2023-05-05T04:52:43.367Z,4.43
2023-05-05T04:55:11.432Z,9.57
2023-05-05T04:57:38.486Z,5.90
2023-05-05T05:00:08.166Z,5.83
2023-05-05T05:02:37.404Z,8.90
2023-05-05T05:05:05.287Z,9.67
2023-05-05T05:07:33.615Z,9.07
2023-05-05T05:10:00.702Z,9.00
2023-05-05T05:12:27.545Z,8.13
2023-05-05T05:14:54.424Z,5.90
2023-05-05T05:17:22.464Z,7.73
2023-05-05T05:19:49.375Z,3.60
2023-05-05T05:22:16.284Z,8.87
2023-05-05T05:24:44.519Z,6.37
2023-05-05T05:27:11.971Z,6.77
2023-05-05T05:29:38.972Z,4.90
2023-05-05T05:32:06.103Z,5.50
2023-05-05T05:34:33.072Z,7.17
2023-05-05T05:36:59.946Z,7.80
2023-05-05T05:39:27.038Z,4.87
2023-05-05T05:41:55.394Z,6.60
2023-05-05T05:44:22.327Z,7.77
2023-05-05T05:46:49.439Z,5.07
2023-05-05T05:49:16.662Z,6.17
2023-05-05T05:51:48.763Z,6.20
2023-05-05T05:54:15.662Z,6.60
2023-05-05T05:56:42.583Z,7.70
2023-05-05T05:59:10.776Z,8.93
2023-05-05T06:01:37.749Z,6.93
2023-05-05T06:04:04.847Z,8.70
2023-05-05T06:06:31.933Z,4.07
2023-05-05T06:08:58.894Z,9.90
2023-05-05T06:11:26.038Z,8.90
2023-05-05T06:13:52.925Z,6.30
2023-05-05T06:16:21.248Z,7.80
2023-05-05T06:18:48.165Z,4.40
2023-05-05T06:21:15.182Z,6.90
2023-05-05T06:23:42.211Z,4.37
2023-05-05T06:26:09.105Z,6.23
2023-05-05T06:28:36.065Z,7.57
2023-05-05T06:31:03.074Z,7.70
2023-05-05T06:33:31.313Z,7.77
2023-05-05T06:35:58.201Z,7.20
2023-05-05T06:38:25.172Z,4.30
2023-05-05T06:40:52.055Z,6.03
2023-05-05T06:43:18.957Z,5.93
2023-05-05T06:45:45.986Z,6.50
2023-05-05T06:48:12.933Z,8.67
2023-05-05T06:50:41.331Z,7.80
2023-05-05T06:53:08.386Z,7.27
2023-05-05T06:55:35.364Z,7.30
2023-05-05T06:58:02.580Z,8.50
2023-05-05T07:00:29.499Z,8.77
2023-05-05T07:03:02.673Z,5.07
2023-05-05T07:05:33.161Z,4.63
2023-05-05T07:08:01.378Z,5.27
2023-05-05T07:10:28.418Z,6.87
2023-05-05T07:12:55.459Z,5.83
2023-05-05T07:15:28.696Z,5.97
2023-05-05T07:17:57.026Z,7.77
2023-05-05T07:20:24.683Z,5.80
2023-05-05T07:22:51.666Z,7.93
2023-05-05T07:25:20.210Z,8.60
2023-05-05T07:27:47.101Z,6.17
2023-05-05T07:30:18.158Z,6.37
2023-05-05T07:32:46.149Z,7.00
2023-05-05T07:35:13.693Z,6.00
2023-05-05T07:37:40.638Z,8.23
2023-05-05T07:40:09.172Z,8.20
2023-05-05T07:42:37.868Z,7.23
2023-05-05T07:45:06.717Z,9.10
2023-05-05T07:47:33.868Z,8.60
2023-05-05T07:50:01.407Z,7.20
2023-05-05T07:52:44.153Z,6.57
2023-05-05T07:55:15.175Z,9.30
2023-05-05T07:57:43.474Z,9.73
2023-05-05T08:00:13.312Z,7.73
2023-05-05T08:02:41.290Z,6.97
2023-05-05T08:05:09.422Z,6.17
2023-05-05T08:07:40.807Z,5.47
2023-05-05T08:10:10.218Z,8.18
2023-05-05T08:12:37.375Z,6.23
2023-05-05T08:15:07.634Z,7.97
2023-05-05T08:17:50.087Z,7.63
2023-05-05T08:20:18.314Z,7.10
2023-05-05T08:22:46.855Z,5.67
2023-05-05T08:25:14.660Z,6.33
2023-05-05T08:27:43.174Z,6.70
2023-05-05T08:30:12.299Z,6.43
2023-05-05T08:32:39.327Z,7.30
2023-05-05T08:35:07.886Z,6.53
2023-05-05T08:37:35.217Z,12.57
2023-05-05T08:40:02.176Z,25.03
2023-05-05T08:42:37.746Z,5.90
2023-05-05T08:45:08.522Z,6.10
2023-05-05T08:47:38.061Z,8.77
2023-05-05T08:50:09.727Z,8.23
2023-05-05T08:52:41.930Z,7.43
2023-05-05T08:55:17.857Z,6.93
2023-05-05T08:57:53.866Z,5.23
2023-05-05T09:00:21.449Z,5.10
2023-05-05T09:02:50.560Z,11.27
2023-05-05T09:05:18.601Z,16.97
2023-05-05T09:07:49.233Z,13.90
2023-05-05T09:10:16.364Z,6.37
2023-05-05T09:12:43.770Z,7.50
2023-05-05T09:15:13.308Z,6.93
2023-05-05T09:17:43.382Z,9.00
2023-05-05T09:20:14.359Z,6.37
2023-05-05T09:22:44.683Z,6.45
2023-05-05T09:25:13.863Z,7.93
2023-05-05T09:27:43.594Z,6.90
2023-05-05T09:30:14.215Z,6.33
2023-05-05T09:32:50.662Z,6.70
2023-05-05T09:35:20.444Z,7.23
2023-05-05T09:37:48.120Z,11.40
2023-05-05T09:40:17.942Z,11.53
2023-05-05T09:42:45.348Z,10.83
2023-05-05T09:45:27.272Z,6.40
2023-05-05T09:47:59.055Z,6.87
2023-05-05T09:50:30.952Z,7.87
2023-05-05T09:53:01.115Z,8.03
2023-05-05T09:55:28.898Z,11.33
2023-05-05T09:57:56.089Z,10.20
2023-05-05T10:00:37.714Z,8.20
2023-05-05T10:03:04.691Z,6.50
2023-05-05T10:05:33.042Z,10.30
2023-05-05T10:08:13.502Z,7.73
2023-05-05T10:10:53.901Z,8.23
2023-05-05T10:13:23.093Z,5.17
2023-05-05T10:15:52.200Z,8.30
2023-05-05T10:18:22.193Z,13.30
2023-05-05T10:20:57.300Z,6.93
2023-05-05T10:23:31.922Z,5.73
2023-05-05T10:26:03.641Z,6.87
2023-05-05T10:28:37.092Z,7.22
2023-05-05T10:31:24.242Z,8.57
2023-05-05T10:33:58.404Z,8.33
2023-05-05T10:36:29.344Z,8.23
2023-05-05T10:38:57.829Z,11.53
2023-05-05T10:41:26.627Z,6.97
2023-05-05T10:43:57.381Z,5.57
2023-05-05T10:46:26.724Z,6.67
2023-05-05T10:49:01.730Z,6.40
2023-05-05T10:51:45.698Z,5.72
2023-05-05T10:54:24.507Z,6.23
2023-05-05T10:56:52.367Z,9.73
2023-05-05T10:59:42.929Z,6.97
2023-05-05T11:02:27.395Z,10.30
2023-05-05T11:05:16.734Z,8.20
2023-05-05T11:07:49.102Z,10.13
2023-05-05T11:10:19.676Z,6.33
2023-05-05T11:13:19.076Z,7.63
2023-05-05T11:15:46.290Z,6.10
2023-05-05T11:18:36.540Z,5.07
2023-05-05T11:21:15.988Z,6.20
2023-05-05T11:23:50.832Z,7.13
2023-05-05T11:26:48.855Z,6.83
2023-05-05T11:29:15.818Z,5.20
2023-05-05T11:31:42.761Z,10.07
2023-05-05T11:34:28.954Z,5.63
2023-05-05T11:37:05.645Z,7.65
2023-05-05T11:39:59.254Z,7.37
2023-05-05T11:42:27.103Z,7.50
2023-05-05T11:44:54.861Z,6.87
2023-05-05T11:47:30.964Z,6.60
2023-05-05T11:49:58.646Z,5.80
2023-05-05T11:52:30.267Z,9.97
2023-05-05T11:55:02.244Z,7.93
2023-05-05T11:57:30.767Z,7.83
2023-05-05T12:00:00.831Z,10.77
2023-05-05T12:02:29.969Z,7.40
2023-05-05T12:04:58.949Z,7.30
2023-05-05T12:07:29.419Z,8.00
2023-05-05T12:09:56.947Z,5.57
2023-05-05T12:12:36.967Z,6.73
2023-05-05T12:15:05.411Z,9.13
2023-05-05T12:17:39.713Z,7.07
2023-05-05T12:20:08.962Z,6.17
2023-05-05T12:22:36.387Z,8.70
2023-05-05T12:25:06.315Z,7.53
2023-05-05T12:27:35.420Z,6.50
2023-05-05T12:30:15.174Z,6.97
2023-05-05T12:32:43.335Z,8.07
2023-05-05T12:35:12.063Z,10.37
2023-05-05T12:37:39.388Z,6.70
2023-05-05T12:40:08.733Z,8.70
2023-05-05T12:42:40.944Z,5.70
2023-05-05T12:45:17.600Z,5.97
2023-05-05T12:47:44.711Z,11.30
2023-05-05T12:50:11.783Z,9.63
2023-05-05T12:52:43.912Z,6.47
2023-05-05T12:55:12.108Z,6.67
2023-05-05T12:58:00.702Z,7.47
2023-05-05T13:00:29.077Z,8.63
2023-05-05T13:02:56.810Z,6.57
2023-05-05T13:05:32.470Z,9.00
2023-05-05T13:07:59.789Z,6.00
2023-05-05T13:10:28.022Z,7.03
2023-05-05T13:12:57.649Z,6.70
2023-05-05T13:15:24.905Z,8.80
2023-05-05T13:17:59.962Z,6.37
2023-05-05T13:20:27.073Z,10.07
2023-05-05T13:22:54.158Z,7.37
2023-05-05T13:25:21.132Z,10.07
2023-05-05T13:27:48.021Z,9.43
2023-05-05T13:30:16.593Z,7.23
2023-05-05T13:32:43.570Z,11.67
2023-05-05T13:35:11.659Z,11.63
2023-05-05T13:37:41.358Z,7.43
2023-05-05T13:40:10.699Z,6.77
2023-05-05T13:42:37.586Z,7.33
2023-05-05T13:45:05.803Z,6.70
2023-05-05T13:47:34.113Z,8.37
2023-05-05T13:50:01.827Z,7.70
2023-05-05T13:52:29.890Z,7.77
2023-05-05T13:54:58.610Z,8.30
2023-05-05T13:57:25.728Z,6.90
2023-05-05T13:59:52.690Z,7.33
2023-05-05T14:02:19.557Z,7.30
2023-05-05T14:04:47.881Z,7.90
2023-05-05T14:07:14.847Z,7.60
2023-05-05T14:09:41.723Z,10.47
2023-05-05T14:12:08.589Z,9.10
2023-05-05T14:14:36.007Z,9.53
2023-05-05T14:17:03.019Z,8.40
2023-05-05T14:19:29.937Z,8.07
2023-05-05T14:21:58.343Z,9.87
2023-05-05T14:24:25.902Z,7.20
2023-05-05T14:26:52.822Z,9.17
2023-05-05T14:29:19.897Z,8.60
2023-05-05T14:31:46.781Z,7.57
2023-05-05T14:34:13.834Z,7.87
2023-05-05T14:36:41.192Z,7.57
2023-05-05T14:39:09.494Z,6.10
2023-05-05T14:41:36.320Z,9.00
2023-05-05T14:44:03.692Z,8.17
2023-05-05T14:46:31.816Z,9.60
2023-05-05T14:48:58.840Z,9.00
2023-05-05T14:51:25.961Z,10.03
2023-05-05T14:53:52.837Z,9.87
2023-05-05T14:56:22.595Z,7.53
2023-05-05T14:58:49.580Z,7.20
2023-05-05T15:01:16.688Z,6.70
2023-05-05T15:03:43.771Z,6.97
2023-05-05T15:06:10.783Z,6.00
2023-05-05T15:08:38.934Z,6.90
2023-05-05T15:11:06.259Z,9.10
2023-05-05T15:13:35.352Z,7.97
2023-05-05T15:16:02.416Z,10.40
2023-05-05T15:18:29.307Z,6.17
2023-05-05T15:20:56.176Z,6.47
2023-05-05T15:23:23.261Z,7.07
2023-05-05T15:25:50.333Z,6.97
2023-05-05T15:28:18.588Z,6.80
2023-05-05T15:30:46.820Z,6.70
2023-05-05T15:33:13.731Z,7.27
2023-05-05T15:35:40.612Z,5.83
2023-05-05T15:38:07.707Z,8.47
2023-05-05T15:40:34.761Z,5.20
2023-05-05T15:43:01.749Z,6.40
2023-05-05T15:45:28.631Z,6.60
2023-05-05T15:47:56.861Z,6.10
2023-05-05T15:50:23.902Z,10.63
2023-05-05T15:52:50.864Z,7.47
2023-05-05T15:55:17.885Z,6.13
2023-05-05T15:57:44.866Z,7.50
2023-05-05T16:00:15.164Z,7.40
2023-05-05T16:02:42.214Z,6.10
2023-05-05T16:05:11.172Z,8.43
2023-05-05T16:07:38.621Z,6.57
2023-05-05T16:10:07.523Z,11.93
2023-05-05T16:12:34.561Z,7.47
2023-05-05T16:15:01.537Z,9.13
2023-05-05T16:17:28.558Z,8.20
2023-05-05T16:19:55.822Z,6.20
2023-05-05T16:22:24.063Z,8.70
2023-05-05T16:24:50.980Z,8.60
2023-05-05T16:27:17.877Z,10.80
2023-05-05T16:29:44.736Z,7.67
2023-05-05T16:32:11.674Z,6.17
2023-05-05T16:34:38.590Z,8.33
2023-05-05T16:37:05.543Z,6.40
2023-05-05T16:39:33.894Z,6.93
2023-05-05T16:42:00.762Z,8.07
2023-05-05T16:44:27.620Z,6.10
2023-05-05T16:46:54.546Z,5.57
2023-05-05T16:49:23.982Z,8.00
2023-05-05T16:51:53.310Z,8.43
2023-05-05T16:54:20.227Z,7.87
2023-05-05T16:56:48.488Z,8.07
2023-05-05T16:59:16.937Z,7.10
2023-05-05T17:01:43.948Z,10.83
2023-05-05T17:04:11.791Z,9.97
2023-05-05T17:06:38.731Z,8.00
2023-05-05T17:09:06.240Z,10.87
2023-05-05T17:11:33.152Z,9.33
2023-05-05T17:14:01.555Z,9.27
2023-05-05T17:16:28.573Z,10.63
2023-05-05T17:18:55.580Z,12.93
2023-05-05T17:21:23.183Z,12.70
2023-05-05T17:23:50.238Z,12.00
2023-05-05T17:26:17.183Z,12.00
2023-05-05T17:28:44.058Z,18.33
2023-05-05T17:31:12.492Z,17.60
2023-05-05T17:33:39.351Z,16.03
2023-05-05T17:36:07.236Z,17.03
2023-05-05T17:38:34.123Z,16.13
2023-05-05T17:41:01.048Z,18.13
2023-05-05T17:43:27.904Z,14.53
2023-05-05T17:45:54.916Z,13.90
2023-05-05T17:48:23.265Z,15.83
2023-05-05T17:50:50.300Z,12.77
2023-05-05T17:53:17.228Z,30.37
2023-05-05T17:55:45.710Z,22.73
2023-05-05T17:58:12.631Z,15.53
2023-05-05T18:00:39.559Z,14.30
2023-05-05T18:03:06.532Z,13.70
2023-05-05T18:05:35.223Z,15.40
2023-05-05T18:08:02.397Z,19.70
2023-05-05T18:10:29.428Z,14.03
2023-05-05T18:12:56.356Z,12.57
2023-05-05T18:15:23.616Z,10.90
2023-05-05T18:17:50.532Z,8.13
2023-05-05T18:20:18.195Z,8.60
2023-05-05T18:22:46.866Z,8.70
2023-05-05T18:25:13.969Z,8.90
2023-05-05T18:27:41.534Z,7.40
2023-05-05T18:30:09.529Z,8.00
2023-05-05T18:32:37.312Z,9.03
2023-05-05T18:35:05.722Z,9.57
2023-05-05T18:37:32.680Z,10.60
2023-05-05T18:40:00.986Z,9.80
2023-05-05T18:42:27.855Z,10.30
2023-05-05T18:44:54.704Z,10.10
2023-05-05T18:47:21.750Z,10.40
2023-05-05T18:49:49.660Z,12.03
2023-05-05T18:52:16.840Z,11.10
2023-05-05T18:54:43.803Z,13.90
2023-05-05T18:57:12.112Z,12.93
2023-05-05T18:59:38.977Z,13.60
2023-05-05T19:02:07.777Z,16.87
2023-05-05T19:04:37.840Z,13.77
2023-05-05T19:07:05.122Z,13.97
2023-05-05T19:09:32.092Z,15.70
2023-05-05T19:11:59.123Z,13.20
2023-05-05T19:14:27.348Z,25.30
2023-05-05T19:16:55.765Z,15.77
2023-05-05T19:19:22.983Z,13.23
2023-05-05T19:21:49.907Z,12.30
2023-05-05T19:24:17.069Z,22.53
2023-05-05T19:26:44.183Z,17.30
2023-05-05T19:29:11.158Z,15.30
2023-05-05T19:31:39.395Z,12.70
2023-05-05T19:34:06.389Z,11.73
2023-05-05T19:36:34.529Z,10.97
2023-05-05T19:39:03.644Z,10.93
2023-05-05T19:41:30.923Z,12.50
2023-05-05T19:43:57.971Z,11.80
2023-05-05T19:46:26.456Z,12.10
2023-05-05T19:48:54.853Z,13.43
2023-05-05T19:51:21.951Z,12.93
2023-05-05T19:53:48.916Z,11.30
2023-05-05T19:56:17.007Z,11.50
2023-05-05T19:58:55.429Z,11.33
2023-05-05T20:01:22.823Z,9.43
2023-05-05T20:03:49.916Z,9.60
2023-05-05T20:06:18.283Z,8.33
2023-05-05T20:08:45.350Z,6.77
2023-05-05T20:11:13.655Z,6.60
2023-05-05T20:13:40.651Z,6.63
2023-05-05T20:16:08.222Z,6.57
2023-05-05T20:18:35.214Z,6.47
2023-05-05T20:21:02.486Z,6.73
2023-05-05T20:23:30.995Z,7.20
2023-05-05T20:25:58.916Z,5.80
2023-05-05T20:28:25.834Z,5.40
2023-05-05T20:30:52.928Z,6.27
2023-05-05T20:33:20.000Z,5.87
2023-05-05T20:35:47.562Z,5.87
2023-05-05T20:38:14.526Z,5.53
2023-05-05T20:40:42.741Z,5.13
2023-05-05T20:43:09.625Z,6.00
2023-05-05T20:45:37.064Z,5.57
2023-05-05T20:48:05.221Z,6.23
2023-05-05T20:50:32.283Z,6.23
2023-05-05T20:52:59.238Z,6.33
2023-05-05T20:55:26.429Z,6.10
2023-05-05T20:57:54.750Z,8.07
2023-05-05T21:00:21.951Z,11.83
2023-05-05T21:02:48.926Z,7.73
2023-05-05T21:05:15.995Z,7.10
2023-05-05T21:07:43.025Z,9.47
2023-05-05T21:10:11.120Z,14.67
2023-05-05T21:12:39.711Z,14.43
2023-05-05T21:15:10.087Z,16.37
2023-05-05T21:17:37.323Z,9.63
2023-05-05T21:20:05.412Z,12.83
2023-05-05T21:22:32.346Z,8.97
2023-05-05T21:25:10.590Z,9.10
2023-05-05T21:27:37.495Z,7.43
2023-05-05T21:30:06.755Z,9.83
2023-05-05T21:32:36.895Z,7.83
2023-05-05T21:35:05.996Z,11.10
2023-05-05T21:37:33.241Z,12.07
2023-05-05T21:40:00.223Z,15.80
2023-05-05T21:42:30.361Z,10.07
2023-05-05T21:44:57.294Z,15.97
2023-05-05T21:47:24.723Z,9.67
2023-05-05T21:50:00.746Z,10.40
2023-05-05T21:52:27.811Z,9.83
2023-05-05T21:54:54.713Z,9.80
2023-05-05T21:57:21.602Z,9.43
2023-05-05T21:59:48.788Z,8.47
2023-05-05T22:02:15.663Z,11.87
2023-05-05T22:04:42.718Z,15.73
2023-05-05T22:07:31.072Z,11.47
2023-05-05T22:10:11.430Z,12.40
2023-05-05T22:12:38.720Z,13.77
2023-05-05T22:15:07.767Z,14.20
2023-05-05T22:17:34.941Z,17.60
2023-05-05T22:20:01.889Z,20.90
2023-05-05T22:22:30.245Z,11.97
2023-05-05T22:24:57.196Z,12.73
2023-05-05T22:27:24.778Z,14.03
2023-05-05T22:29:51.659Z,14.37
2023-05-05T22:32:20.358Z,14.20
2023-05-05T22:34:47.402Z,12.83
2023-05-05T22:37:14.614Z,13.83
2023-05-05T22:39:42.852Z,11.30
2023-05-05T22:42:09.821Z,11.37
2023-05-05T22:44:36.739Z,12.67
2023-05-05T22:47:03.854Z,11.70
2023-05-05T22:49:31.603Z,13.10
2023-05-05T22:51:58.582Z,14.67
2023-05-05T22:54:25.640Z,12.97
2023-05-05T22:56:53.846Z,15.30
2023-05-05T22:59:20.757Z,13.37
2023-05-05T23:01:47.640Z,14.07
2023-05-05T23:04:14.700Z,16.77
2023-05-05T23:06:41.760Z,14.17
2023-05-05T23:09:09.177Z,13.63
2023-05-05T23:11:36.151Z,13.37
2023-05-05T23:14:04.410Z,14.63
2023-05-05T23:16:31.486Z,13.80
2023-05-05T23:18:58.396Z,14.03
2023-05-05T23:21:25.406Z,12.33
2023-05-05T23:23:52.375Z,17.17
2023-05-05T23:26:19.319Z,14.40
2023-05-05T23:28:46.269Z,13.70
2023-05-05T23:31:14.523Z,13.27
2023-05-05T23:33:41.428Z,15.13
2023-05-05T23:36:09.094Z,14.70
2023-05-05T23:38:36.060Z,15.17
2023-05-05T23:41:02.968Z,15.20
2023-05-05T23:43:29.896Z,13.90
2023-05-05T23:45:56.907Z,15.10
2023-05-05T23:48:25.394Z,15.40
2023-05-05T23:50:52.722Z,18.07
2023-05-05T23:53:19.625Z,15.90
2023-05-05T23:55:46.556Z,19.13
2023-05-05T23:58:13.502Z,18.23
